sensor_id;sensor_type;location;lat;lon;timestamp;P1;durP1;ratioP1;P2;durP2;ratioP2
64387;SDS011;50709;52.648;4.764;2023-05-10T00:00:54;8.80;;;5.90;;
64387;SDS011;50709;52.648;4.764;2023-05-10T00:03:20;9.52;;;6.10;;
64387;SDS011;50709;52.648;4.764;2023-05-10T00:05:45;12.05;;;7.10;;
64387;SDS011;50709;52.648;4.764;2023-05-10T00:08:10;6.90;;;4.75;;
64387;SDS011;50709;52.648;4.764;2023-05-10T00:10:36;9.52;;;6.10;;
64387;SDS011;50709;52.648;4.764;2023-05-10T00:13:02;9.57;;;5.72;;
64387;SDS011;50709;52.648;4.764;2023-05-10T00:15:28;10.05;;;5.78;;
64387;SDS011;50709;52.648;4.764;2023-05-10T00:17:55;9.18;;;6.15;;
64387;SDS011;50709;52.648;4.764;2023-05-10T00:20:21;9.38;;;5.93;;
64387;SDS011;50709;52.648;4.764;2023-05-10T00:22:46;8.52;;;5.20;;
64387;SDS011;50709;52.648;4.764;2023-05-10T00:25:11;8.82;;;5.82;;
64387;SDS011;50709;52.648;4.764;2023-05-10T00:27:37;9.32;;;5.88;;
64387;SDS011;50709;52.648;4.764;2023-05-10T00:30:02;9.50;;;5.70;;
64387;SDS011;50709;52.648;4.764;2023-05-10T00:32:28;9.77;;;5.72;;
64387;SDS011;50709;52.648;4.764;2023-05-10T00:34:53;10.95;;;6.35;;
64387;SDS011;50709;52.648;4.764;2023-05-10T00:37:19;10.90;;;7.18;;
64387;SDS011;50709;52.648;4.764;2023-05-10T00:39:45;9.35;;;5.50;;
64387;SDS011;50709;52.648;4.764;2023-05-10T00:42:10;11.15;;;6.20;;
64387;SDS011;50709;52.648;4.764;2023-05-10T00:44:35;10.30;;;6.20;;
64387;SDS011;50709;52.648;4.764;2023-05-10T00:47:01;10.57;;;5.55;;
64387;SDS011;50709;52.648;4.764;2023-05-10T00:49:26;12.27;;;6.35;;
64387;SDS011;50709;52.648;4.764;2023-05-10T00:51:52;12.95;;;6.53;;
64387;SDS011;50709;52.648;4.764;2023-05-10T00:54:18;11.73;;;6.40;;
64387;SDS011;50709;52.648;4.764;2023-05-10T00:56:43;12.23;;;6.93;;
64387;SDS011;50709;52.648;4.764;2023-05-10T00:59:14;10.65;;;6.10;;
64387;SDS011;50709;52.648;4.764;2023-05-10T01:01:43;12.05;;;6.72;;
64387;SDS011;50709;52.648;4.764;2023-05-10T01:04:10;11.07;;;6.22;;
64387;SDS011;50709;52.648;4.764;2023-05-10T01:06:40;10.88;;;6.05;;
64387;SDS011;50709;52.648;4.764;2023-05-10T01:09:06;7.63;;;5.13;;
64387;SDS011;50709;52.648;4.764;2023-05-10T01:11:34;7.53;;;4.80;;
64387;SDS011;50709;52.648;4.764;2023-05-10T01:14:01;8.35;;;4.82;;
64387;SDS011;50709;52.648;4.764;2023-05-10T01:16:27;8.35;;;5.63;;
64387;SDS011;50709;52.648;4.764;2023-05-10T01:18:57;9.32;;;6.18;;
64387;SDS011;50709;52.648;4.764;2023-05-10T01:21:38;6.88;;;4.65;;
64387;SDS011;50709;52.648;4.764;2023-05-10T01:27:36;8.88;;;5.68;;
64387;SDS011;50709;52.648;4.764;2023-05-10T01:33:00;9.57;;;5.78;;
64387;SDS011;50709;52.648;4.764;2023-05-10T01:35:37;10.10;;;5.53;;
64387;SDS011;50709;52.648;4.764;2023-05-10T01:43:57;7.72;;;4.30;;
64387;SDS011;50709;52.648;4.764;2023-05-10T01:46:31;7.68;;;4.63;;
64387;SDS011;50709;52.648;4.764;2023-05-10T01:49:00;7.90;;;4.55;;
64387;SDS011;50709;52.648;4.764;2023-05-10T01:51:31;6.95;;;4.25;;
64387;SDS011;50709;52.648;4.764;2023-05-10T01:54:04;6.15;;;3.95;;
64387;SDS011;50709;52.648;4.764;2023-05-10T01:56:32;7.70;;;4.50;;
64387;SDS011;50709;52.648;4.764;2023-05-10T01:59:00;11.13;;;5.65;;
64387;SDS011;50709;52.648;4.764;2023-05-10T02:01:33;11.18;;;4.88;;
64387;SDS011;50709;52.648;4.764;2023-05-10T02:04:02;8.98;;;4.00;;
64387;SDS011;50709;52.648;4.764;2023-05-10T02:06:29;8.52;;;3.95;;
64387;SDS011;50709;52.648;4.764;2023-05-10T02:08:57;9.02;;;4.40;;
64387;SDS011;50709;52.648;4.764;2023-05-10T02:11:23;8.02;;;3.60;;
64387;SDS011;50709;52.648;4.764;2023-05-10T02:13:50;7.53;;;3.38;;
64387;SDS011;50709;52.648;4.764;2023-05-10T02:16:18;5.97;;;2.95;;
64387;SDS011;50709;52.648;4.764;2023-05-10T02:18:49;7.28;;;3.70;;
64387;SDS011;50709;52.648;4.764;2023-05-10T02:21:17;7.75;;;3.67;;
64387;SDS011;50709;52.648;4.764;2023-05-10T02:23:44;5.40;;;3.38;;
64387;SDS011;50709;52.648;4.764;2023-05-10T02:26:10;5.75;;;3.17;;
64387;SDS011;50709;52.648;4.764;2023-05-10T02:28:38;6.35;;;3.70;;
64387;SDS011;50709;52.648;4.764;2023-05-10T02:31:05;5.78;;;3.28;;
64387;SDS011;50709;52.648;4.764;2023-05-10T02:33:32;5.32;;;2.88;;
64387;SDS011;50709;52.648;4.764;2023-05-10T02:35:59;5.35;;;3.13;;
64387;SDS011;50709;52.648;4.764;2023-05-10T02:38:26;5.43;;;2.78;;
64387;SDS011;50709;52.648;4.764;2023-05-10T02:40:53;6.22;;;3.35;;
64387;SDS011;50709;52.648;4.764;2023-05-10T02:43:19;4.38;;;2.70;;
64387;SDS011;50709;52.648;4.764;2023-05-10T02:45:48;6.32;;;3.03;;
64387;SDS011;50709;52.648;4.764;2023-05-10T02:48:13;4.78;;;2.70;;
64387;SDS011;50709;52.648;4.764;2023-05-10T02:50:39;5.68;;;2.80;;
64387;SDS011;50709;52.648;4.764;2023-05-10T02:53:11;6.05;;;3.63;;
64387;SDS011;50709;52.648;4.764;2023-05-10T02:55:41;6.20;;;3.40;;
64387;SDS011;50709;52.648;4.764;2023-05-10T02:58:13;6.80;;;3.97;;
64387;SDS011;50709;52.648;4.764;2023-05-10T03:00:38;6.47;;;3.50;;
64387;SDS011;50709;52.648;4.764;2023-05-10T03:03:04;7.85;;;3.70;;
64387;SDS011;50709;52.648;4.764;2023-05-10T03:05:30;5.93;;;3.10;;
64387;SDS011;50709;52.648;4.764;2023-05-10T03:07:55;5.70;;;2.95;;
64387;SDS011;50709;52.648;4.764;2023-05-10T03:10:22;6.07;;;3.00;;
64387;SDS011;50709;52.648;4.764;2023-05-10T03:13:35;5.93;;;3.08;;
64387;SDS011;50709;52.648;4.764;2023-05-10T03:15:58;5.60;;;2.97;;
64387;SDS011;50709;52.648;4.764;2023-05-10T03:18:44;6.93;;;3.70;;
64387;SDS011;50709;52.648;4.764;2023-05-10T03:21:15;6.20;;;2.97;;
64387;SDS011;50709;52.648;4.764;2023-05-10T03:23:44;5.70;;;2.97;;
64387;SDS011;50709;52.648;4.764;2023-05-10T03:26:14;9.13;;;4.15;;
64387;SDS011;50709;52.648;4.764;2023-05-10T03:28:45;6.22;;;3.35;;
64387;SDS011;50709;52.648;4.764;2023-05-10T03:31:14;6.60;;;3.67;;
64387;SDS011;50709;52.648;4.764;2023-05-10T03:33:48;5.78;;;3.35;;
64387;SDS011;50709;52.648;4.764;2023-05-10T03:36:15;7.97;;;3.67;;
64387;SDS011;50709;52.648;4.764;2023-05-10T03:38:40;8.57;;;4.07;;
64387;SDS011;50709;52.648;4.764;2023-05-10T03:41:06;7.63;;;4.07;;
64387;SDS011;50709;52.648;4.764;2023-05-10T03:43:31;8.93;;;4.20;;
64387;SDS011;50709;52.648;4.764;2023-05-10T03:45:57;9.90;;;3.88;;
64387;SDS011;50709;52.648;4.764;2023-05-10T03:48:22;9.27;;;4.30;;
64387;SDS011;50709;52.648;4.764;2023-05-10T03:50:48;8.02;;;4.18;;
64387;SDS011;50709;52.648;4.764;2023-05-10T03:53:14;9.98;;;5.05;;
64387;SDS011;50709;52.648;4.764;2023-05-10T03:55:40;7.47;;;3.90;;
64387;SDS011;50709;52.648;4.764;2023-05-10T03:58:05;8.70;;;4.57;;
64387;SDS011;50709;52.648;4.764;2023-05-10T04:00:31;10.48;;;5.65;;
64387;SDS011;50709;52.648;4.764;2023-05-10T04:02:57;9.25;;;5.07;;
64387;SDS011;50709;52.648;4.764;2023-05-10T04:05:22;7.70;;;4.07;;
64387;SDS011;50709;52.648;4.764;2023-05-10T04:07:48;6.78;;;3.90;;
64387;SDS011;50709;52.648;4.764;2023-05-10T04:10:14;7.28;;;3.63;;
64387;SDS011;50709;52.648;4.764;2023-05-10T04:12:41;6.07;;;3.47;;
64387;SDS011;50709;52.648;4.764;2023-05-10T04:15:06;6.82;;;3.80;;
64387;SDS011;50709;52.648;4.764;2023-05-10T04:17:32;8.10;;;4.80;;
64387;SDS011;50709;52.648;4.764;2023-05-10T04:19:58;7.35;;;4.40;;
64387;SDS011;50709;52.648;4.764;2023-05-10T04:22:23;6.38;;;3.72;;
64387;SDS011;50709;52.648;4.764;2023-05-10T04:24:48;7.75;;;4.30;;
64387;SDS011;50709;52.648;4.764;2023-05-10T04:27:14;8.90;;;5.05;;
64387;SDS011;50709;52.648;4.764;2023-05-10T04:29:39;8.60;;;4.20;;
64387;SDS011;50709;52.648;4.764;2023-05-10T04:32:05;8.52;;;4.93;;
64387;SDS011;50709;52.648;4.764;2023-05-10T04:34:30;8.45;;;5.13;;
64387;SDS011;50709;52.648;4.764;2023-05-10T04:36:55;8.82;;;4.40;;
64387;SDS011;50709;52.648;4.764;2023-05-10T04:39:21;9.18;;;5.30;;
64387;SDS011;50709;52.648;4.764;2023-05-10T04:41:46;9.60;;;5.07;;
64387;SDS011;50709;52.648;4.764;2023-05-10T04:44:11;10.63;;;5.70;;
64387;SDS011;50709;52.648;4.764;2023-05-10T04:46:37;8.82;;;5.30;;
64387;SDS011;50709;52.648;4.764;2023-05-10T04:49:02;10.95;;;6.07;;
64387;SDS011;50709;52.648;4.764;2023-05-10T04:51:27;9.52;;;5.35;;
64387;SDS011;50709;52.648;4.764;2023-05-10T04:53:53;9.65;;;5.70;;
64387;SDS011;50709;52.648;4.764;2023-05-10T04:56:18;11.23;;;5.97;;
64387;SDS011;50709;52.648;4.764;2023-05-10T04:58:44;7.45;;;3.80;;
64387;SDS011;50709;52.648;4.764;2023-05-10T05:01:09;7.25;;;4.43;;
64387;SDS011;50709;52.648;4.764;2023-05-10T05:03:35;9.68;;;5.35;;
64387;SDS011;50709;52.648;4.764;2023-05-10T05:06:01;10.98;;;6.32;;
64387;SDS011;50709;52.648;4.764;2023-05-10T05:08:27;7.95;;;4.60;;
64387;SDS011;50709;52.648;4.764;2023-05-10T05:10:53;9.13;;;5.70;;
64387;SDS011;50709;52.648;4.764;2023-05-10T05:13:18;4.50;;;2.70;;
64387;SDS011;50709;52.648;4.764;2023-05-10T05:15:44;6.55;;;3.20;;
64387;SDS011;50709;52.648;4.764;2023-05-10T05:18:09;5.20;;;2.90;;
64387;SDS011;50709;52.648;4.764;2023-05-10T05:20:35;9.57;;;6.10;;
64387;SDS011;50709;52.648;4.764;2023-05-10T05:23:00;11.20;;;5.93;;
64387;SDS011;50709;52.648;4.764;2023-05-10T05:25:26;9.70;;;5.63;;
64387;SDS011;50709;52.648;4.764;2023-05-10T05:27:51;11.30;;;6.88;;
64387;SDS011;50709;52.648;4.764;2023-05-10T05:30:17;11.57;;;6.30;;
64387;SDS011;50709;52.648;4.764;2023-05-10T05:32:42;10.48;;;5.47;;
64387;SDS011;50709;52.648;4.764;2023-05-10T05:35:08;8.93;;;5.82;;
64387;SDS011;50709;52.648;4.764;2023-05-10T05:37:33;10.63;;;5.68;;
64387;SDS011;50709;52.648;4.764;2023-05-10T05:39:59;9.98;;;5.50;;
64387;SDS011;50709;52.648;4.764;2023-05-10T05:42:26;13.05;;;6.50;;
64387;SDS011;50709;52.648;4.764;2023-05-10T05:44:52;9.10;;;6.07;;
64387;SDS011;50709;52.648;4.764;2023-05-10T05:47:17;9.88;;;5.20;;
64387;SDS011;50709;52.648;4.764;2023-05-10T05:49:43;8.98;;;5.35;;
64387;SDS011;50709;52.648;4.764;2023-05-10T05:52:10;8.25;;;5.40;;
64387;SDS011;50709;52.648;4.764;2023-05-10T05:54:36;8.98;;;5.63;;
64387;SDS011;50709;52.648;4.764;2023-05-10T05:57:01;9.45;;;5.80;;
64387;SDS011;50709;52.648;4.764;2023-05-10T05:59:27;11.77;;;6.65;;
64387;SDS011;50709;52.648;4.764;2023-05-10T06:01:52;10.48;;;6.05;;
64387;SDS011;50709;52.648;4.764;2023-05-10T06:04:18;11.32;;;6.65;;
64387;SDS011;50709;52.648;4.764;2023-05-10T06:06:43;10.75;;;6.18;;
64387;SDS011;50709;52.648;4.764;2023-05-10T06:09:09;11.63;;;6.13;;
64387;SDS011;50709;52.648;4.764;2023-05-10T06:11:35;11.18;;;6.10;;
64387;SDS011;50709;52.648;4.764;2023-05-10T06:14:00;11.32;;;6.55;;
64387;SDS011;50709;52.648;4.764;2023-05-10T06:16:27;11.48;;;6.15;;
64387;SDS011;50709;52.648;4.764;2023-05-10T06:18:53;9.38;;;5.45;;
64387;SDS011;50709;52.648;4.764;2023-05-10T06:21:18;9.40;;;5.85;;
64387;SDS011;50709;52.648;4.764;2023-05-10T06:23:44;10.98;;;5.57;;
64387;SDS011;50709;52.648;4.764;2023-05-10T06:26:09;10.98;;;5.97;;
64387;SDS011;50709;52.648;4.764;2023-05-10T06:28:35;10.13;;;5.88;;
64387;SDS011;50709;52.648;4.764;2023-05-10T06:31:03;10.43;;;6.10;;
64387;SDS011;50709;52.648;4.764;2023-05-10T06:33:29;9.98;;;5.70;;
64387;SDS011;50709;52.648;4.764;2023-05-10T06:35:54;12.10;;;5.32;;
64387;SDS011;50709;52.648;4.764;2023-05-10T06:38:19;10.60;;;6.38;;
64387;SDS011;50709;52.648;4.764;2023-05-10T06:40:45;11.50;;;6.65;;
64387;SDS011;50709;52.648;4.764;2023-05-10T06:43:10;10.85;;;6.03;;
64387;SDS011;50709;52.648;4.764;2023-05-10T06:45:35;13.23;;;6.68;;
64387;SDS011;50709;52.648;4.764;2023-05-10T06:48:01;10.07;;;5.75;;
64387;SDS011;50709;52.648;4.764;2023-05-10T06:50:27;12.15;;;6.50;;
64387;SDS011;50709;52.648;4.764;2023-05-10T06:52:53;10.77;;;5.40;;
64387;SDS011;50709;52.648;4.764;2023-05-10T06:55:18;9.10;;;5.30;;
64387;SDS011;50709;52.648;4.764;2023-05-10T06:57:43;11.98;;;6.47;;
64387;SDS011;50709;52.648;4.764;2023-05-10T07:00:09;7.55;;;4.93;;
64387;SDS011;50709;52.648;4.764;2023-05-10T07:02:35;12.05;;;6.18;;
64387;SDS011;50709;52.648;4.764;2023-05-10T07:05:01;9.15;;;5.43;;
64387;SDS011;50709;52.648;4.764;2023-05-10T07:07:27;8.43;;;5.18;;
64387;SDS011;50709;52.648;4.764;2023-05-10T07:09:52;11.98;;;6.75;;
64387;SDS011;50709;52.648;4.764;2023-05-10T07:12:18;12.38;;;6.78;;
64387;SDS011;50709;52.648;4.764;2023-05-10T07:14:43;8.98;;;4.72;;
64387;SDS011;50709;52.648;4.764;2023-05-10T07:17:09;9.45;;;5.85;;
64387;SDS011;50709;52.648;4.764;2023-05-10T07:19:34;9.70;;;5.65;;
64387;SDS011;50709;52.648;4.764;2023-05-10T07:22:00;9.27;;;5.43;;
64387;SDS011;50709;52.648;4.764;2023-05-10T07:24:26;9.25;;;5.32;;
64387;SDS011;50709;52.648;4.764;2023-05-10T07:26:52;8.57;;;5.13;;
64387;SDS011;50709;52.648;4.764;2023-05-10T07:29:17;10.32;;;6.10;;
64387;SDS011;50709;52.648;4.764;2023-05-10T07:31:42;8.45;;;5.40;;
64387;SDS011;50709;52.648;4.764;2023-05-10T07:34:08;10.07;;;6.03;;
64387;SDS011;50709;52.648;4.764;2023-05-10T07:36:34;11.88;;;6.43;;
64387;SDS011;50709;52.648;4.764;2023-05-10T07:39:00;8.82;;;5.38;;
64387;SDS011;50709;52.648;4.764;2023-05-10T07:41:25;10.77;;;5.45;;
64387;SDS011;50709;52.648;4.764;2023-05-10T07:43:51;8.77;;;4.88;;
64387;SDS011;50709;52.648;4.764;2023-05-10T07:46:16;10.13;;;5.18;;
64387;SDS011;50709;52.648;4.764;2023-05-10T07:48:41;12.95;;;6.80;;
64387;SDS011;50709;52.648;4.764;2023-05-10T07:51:07;10.63;;;5.35;;
64387;SDS011;50709;52.648;4.764;2023-05-10T07:53:34;13.57;;;6.43;;
64387;SDS011;50709;52.648;4.764;2023-05-10T07:56:19;9.82;;;5.45;;
64387;SDS011;50709;52.648;4.764;2023-05-10T07:58:50;9.52;;;5.47;;
64387;SDS011;50709;52.648;4.764;2023-05-10T08:01:16;8.82;;;4.97;;
64387;SDS011;50709;52.648;4.764;2023-05-10T08:03:41;11.32;;;6.10;;
64387;SDS011;50709;52.648;4.764;2023-05-10T08:06:07;10.75;;;6.10;;
64387;SDS011;50709;52.648;4.764;2023-05-10T08:08:32;10.57;;;5.93;;
64387;SDS011;50709;52.648;4.764;2023-05-10T08:10:57;10.93;;;5.47;;
64387;SDS011;50709;52.648;4.764;2023-05-10T08:13:23;9.55;;;5.13;;
64387;SDS011;50709;52.648;4.764;2023-05-10T08:15:48;9.43;;;4.90;;
64387;SDS011;50709;52.648;4.764;2023-05-10T08:18:14;10.93;;;6.55;;
64387;SDS011;50709;52.648;4.764;2023-05-10T08:20:39;10.55;;;6.05;;
64387;SDS011;50709;52.648;4.764;2023-05-10T08:23:05;9.43;;;4.93;;
64387;SDS011;50709;52.648;4.764;2023-05-10T08:25:30;8.05;;;4.93;;
64387;SDS011;50709;52.648;4.764;2023-05-10T08:27:56;6.35;;;4.10;;
64387;SDS011;50709;52.648;4.764;2023-05-10T08:30:21;9.35;;;5.60;;
64387;SDS011;50709;52.648;4.764;2023-05-10T08:32:47;9.15;;;5.53;;
64387;SDS011;50709;52.648;4.764;2023-05-10T08:35:12;8.68;;;5.50;;
64387;SDS011;50709;52.648;4.764;2023-05-10T08:37:38;9.75;;;5.50;;
64387;SDS011;50709;52.648;4.764;2023-05-10T08:40:03;11.65;;;6.03;;
64387;SDS011;50709;52.648;4.764;2023-05-10T08:42:30;9.77;;;6.30;;
64387;SDS011;50709;52.648;4.764;2023-05-10T08:44:58;7.55;;;4.35;;
64387;SDS011;50709;52.648;4.764;2023-05-10T08:47:24;10.70;;;6.65;;
64387;SDS011;50709;52.648;4.764;2023-05-10T08:49:50;10.77;;;6.18;;
64387;SDS011;50709;52.648;4.764;2023-05-10T08:52:17;10.75;;;5.53;;
64387;SDS011;50709;52.648;4.764;2023-05-10T08:54:43;8.48;;;4.63;;
64387;SDS011;50709;52.648;4.764;2023-05-10T08:57:09;8.20;;;5.32;;
64387;SDS011;50709;52.648;4.764;2023-05-10T08:59:35;11.00;;;6.30;;
64387;SDS011;50709;52.648;4.764;2023-05-10T09:02:04;8.07;;;4.55;;
64387;SDS011;50709;52.648;4.764;2023-05-10T09:04:30;11.68;;;6.13;;
64387;SDS011;50709;52.648;4.764;2023-05-10T09:06:56;9.82;;;6.10;;
64387;SDS011;50709;52.648;4.764;2023-05-10T09:09:22;19.58;;;9.90;;
64387;SDS011;50709;52.648;4.764;2023-05-10T09:11:49;8.82;;;4.97;;
64387;SDS011;50709;52.648;4.764;2023-05-10T09:14:14;8.90;;;5.03;;
64387;SDS011;50709;52.648;4.764;2023-05-10T09:16:40;11.40;;;5.70;;
64387;SDS011;50709;52.648;4.764;2023-05-10T09:19:06;11.70;;;6.07;;
64387;SDS011;50709;52.648;4.764;2023-05-10T09:21:34;9.32;;;4.90;;
64387;SDS011;50709;52.648;4.764;2023-05-10T09:24:03;8.68;;;4.72;;
64387;SDS011;50709;52.648;4.764;2023-05-10T09:26:30;12.43;;;6.53;;
64387;SDS011;50709;52.648;4.764;2023-05-10T09:28:56;13.73;;;7.57;;
64387;SDS011;50709;52.648;4.764;2023-05-10T09:31:22;10.00;;;5.22;;
64387;SDS011;50709;52.648;4.764;2023-05-10T09:33:50;11.82;;;7.07;;
64387;SDS011;50709;52.648;4.764;2023-05-10T09:36:17;12.90;;;6.80;;
64387;SDS011;50709;52.648;4.764;2023-05-10T09:38:49;10.85;;;5.95;;
64387;SDS011;50709;52.648;4.764;2023-05-10T09:41:19;10.73;;;5.63;;
64387;SDS011;50709;52.648;4.764;2023-05-10T09:43:46;9.82;;;5.13;;
64387;SDS011;50709;52.648;4.764;2023-05-10T09:46:12;11.63;;;5.93;;
64387;SDS011;50709;52.648;4.764;2023-05-10T09:48:41;14.48;;;7.07;;
64387;SDS011;50709;52.648;4.764;2023-05-10T09:51:09;11.55;;;6.10;;
64387;SDS011;50709;52.648;4.764;2023-05-10T09:53:35;10.15;;;5.72;;
64387;SDS011;50709;52.648;4.764;2023-05-10T09:56:00;12.10;;;6.38;;
64387;SDS011;50709;52.648;4.764;2023-05-10T09:58:26;9.15;;;5.18;;
64387;SDS011;50709;52.648;4.764;2023-05-10T10:00:51;12.77;;;7.22;;
64387;SDS011;50709;52.648;4.764;2023-05-10T10:03:19;12.00;;;6.47;;
64387;SDS011;50709;52.648;4.764;2023-05-10T10:05:46;13.18;;;6.97;;
64387;SDS011;50709;52.648;4.764;2023-05-10T10:08:13;11.57;;;6.88;;
64387;SDS011;50709;52.648;4.764;2023-05-10T10:10:39;11.32;;;5.90;;
64387;SDS011;50709;52.648;4.764;2023-05-10T10:13:10;12.02;;;6.18;;
64387;SDS011;50709;52.648;4.764;2023-05-10T10:15:35;12.57;;;6.35;;
64387;SDS011;50709;52.648;4.764;2023-05-10T10:18:02;11.77;;;6.47;;
64387;SDS011;50709;52.648;4.764;2023-05-10T10:20:29;11.73;;;5.82;;
64387;SDS011;50709;52.648;4.764;2023-05-10T10:22:54;12.88;;;5.75;;
64387;SDS011;50709;52.648;4.764;2023-05-10T10:25:20;11.82;;;6.60;;
64387;SDS011;50709;52.648;4.764;2023-05-10T10:27:56;11.00;;;6.20;;
64387;SDS011;50709;52.648;4.764;2023-05-10T10:30:48;11.43;;;6.03;;
64387;SDS011;50709;52.648;4.764;2023-05-10T10:36:09;12.23;;;6.15;;
64387;SDS011;50709;52.648;4.764;2023-05-10T10:41:27;10.48;;;5.30;;
64387;SDS011;50709;52.648;4.764;2023-05-10T10:49:47;10.38;;;5.82;;
64387;SDS011;50709;52.648;4.764;2023-05-10T11:07:58;9.10;;;5.10;;
64387;SDS011;50709;52.648;4.764;2023-05-10T11:10:24;7.80;;;4.47;;
64387;SDS011;50709;52.648;4.764;2023-05-10T11:12:58;10.07;;;5.63;;
64387;SDS011;50709;52.648;4.764;2023-05-10T11:15:38;10.32;;;5.65;;
64387;SDS011;50709;52.648;4.764;2023-05-10T11:18:20;8.52;;;5.30;;
64387;SDS011;50709;52.648;4.764;2023-05-10T11:20:52;8.45;;;5.30;;
64387;SDS011;50709;52.648;4.764;2023-05-10T11:23:20;9.52;;;5.32;;
64387;SDS011;50709;52.648;4.764;2023-05-10T11:25:46;7.50;;;4.63;;
64387;SDS011;50709;52.648;4.764;2023-05-10T11:28:13;8.43;;;4.90;;
64387;SDS011;50709;52.648;4.764;2023-05-10T11:30:39;7.78;;;4.88;;
64387;SDS011;50709;52.648;4.764;2023-05-10T11:33:06;7.38;;;4.78;;
64387;SDS011;50709;52.648;4.764;2023-05-10T11:35:38;10.30;;;5.45;;
64387;SDS011;50709;52.648;4.764;2023-05-10T11:38:05;8.30;;;4.45;;
64387;SDS011;50709;52.648;4.764;2023-05-10T11:40:34;8.95;;;5.30;;
64387;SDS011;50709;52.648;4.764;2023-05-10T11:43:00;8.00;;;4.78;;
64387;SDS011;50709;52.648;4.764;2023-05-10T11:45:26;10.43;;;4.82;;
64387;SDS011;50709;52.648;4.764;2023-05-10T11:47:53;8.57;;;4.80;;
64387;SDS011;50709;52.648;4.764;2023-05-10T11:50:18;7.65;;;4.50;;
64387;SDS011;50709;52.648;4.764;2023-05-10T11:52:44;8.05;;;5.15;;
64387;SDS011;50709;52.648;4.764;2023-05-10T11:55:09;7.70;;;4.82;;
64387;SDS011;50709;52.648;4.764;2023-05-10T11:57:35;8.13;;;4.80;;
64387;SDS011;50709;52.648;4.764;2023-05-10T12:00:03;6.95;;;3.95;;
64387;SDS011;50709;52.648;4.764;2023-05-10T12:02:29;7.85;;;4.70;;
64387;SDS011;50709;52.648;4.764;2023-05-10T12:04:55;7.85;;;4.95;;
64387;SDS011;50709;52.648;4.764;2023-05-10T12:07:21;8.15;;;4.72;;
64387;SDS011;50709;52.648;4.764;2023-05-10T12:10:02;7.50;;;4.93;;
64387;SDS011;50709;52.648;4.764;2023-05-10T12:12:36;7.30;;;4.15;;
64387;SDS011;50709;52.648;4.764;2023-05-10T12:15:02;6.95;;;4.40;;
64387;SDS011;50709;52.648;4.764;2023-05-10T12:17:28;6.85;;;4.15;;
64387;SDS011;50709;52.648;4.764;2023-05-10T12:19:55;7.28;;;4.35;;
64387;SDS011;50709;52.648;4.764;2023-05-10T12:22:24;6.88;;;4.28;;
64387;SDS011;50709;52.648;4.764;2023-05-10T12:24:50;6.90;;;4.65;;
64387;SDS011;50709;52.648;4.764;2023-05-10T12:27:15;6.00;;;4.20;;
64387;SDS011;50709;52.648;4.764;2023-05-10T12:29:41;7.78;;;4.90;;
64387;SDS011;50709;52.648;4.764;2023-05-10T12:32:09;6.55;;;3.97;;
64387;SDS011;50709;52.648;4.764;2023-05-10T12:34:35;8.35;;;4.57;;
64387;SDS011;50709;52.648;4.764;2023-05-10T12:37:03;7.15;;;4.75;;
64387;SDS011;50709;52.648;4.764;2023-05-10T12:39:39;9.00;;;5.07;;
64387;SDS011;50709;52.648;4.764;2023-05-10T12:42:04;6.30;;;4.22;;
64387;SDS011;50709;52.648;4.764;2023-05-10T12:44:31;7.55;;;4.18;;
64387;SDS011;50709;52.648;4.764;2023-05-10T12:46:56;7.57;;;4.22;;
64387;SDS011;50709;52.648;4.764;2023-05-10T12:49:21;6.68;;;4.28;;
64387;SDS011;50709;52.648;4.764;2023-05-10T12:51:47;5.65;;;3.80;;
64387;SDS011;50709;52.648;4.764;2023-05-10T12:54:12;6.22;;;3.83;;
64387;SDS011;50709;52.648;4.764;2023-05-10T12:56:37;5.72;;;3.88;;
64387;SDS011;50709;52.648;4.764;2023-05-10T12:59:07;5.72;;;3.75;;
64387;SDS011;50709;52.648;4.764;2023-05-10T13:01:33;6.43;;;4.00;;
64387;SDS011;50709;52.648;4.764;2023-05-10T13:03:58;6.15;;;3.80;;
64387;SDS011;50709;52.648;4.764;2023-05-10T13:06:25;6.50;;;4.15;;
64387;SDS011;50709;52.648;4.764;2023-05-10T13:08:50;6.65;;;4.47;;
64387;SDS011;50709;52.648;4.764;2023-05-10T13:11:16;5.65;;;3.60;;
64387;SDS011;50709;52.648;4.764;2023-05-10T13:13:42;5.57;;;3.67;;
64387;SDS011;50709;52.648;4.764;2023-05-10T13:16:07;6.60;;;3.85;;
64387;SDS011;50709;52.648;4.764;2023-05-10T13:18:33;6.75;;;3.90;;
64387;SDS011;50709;52.648;4.764;2023-05-10T13:20:58;5.60;;;3.30;;
64387;SDS011;50709;52.648;4.764;2023-05-10T13:23:24;5.25;;;3.55;;
64387;SDS011;50709;52.648;4.764;2023-05-10T13:25:49;5.65;;;3.55;;
64387;SDS011;50709;52.648;4.764;2023-05-10T13:28:14;6.82;;;3.85;;
64387;SDS011;50709;52.648;4.764;2023-05-10T13:30:40;4.93;;;3.47;;
64387;SDS011;50709;52.648;4.764;2023-05-10T13:33:05;7.00;;;4.05;;
64387;SDS011;50709;52.648;4.764;2023-05-10T13:35:31;6.43;;;3.58;;
64387;SDS011;50709;52.648;4.764;2023-05-10T13:37:59;5.40;;;4.03;;
64387;SDS011;50709;52.648;4.764;2023-05-10T13:40:24;6.53;;;3.80;;
64387;SDS011;50709;52.648;4.764;2023-05-10T13:42:50;5.95;;;3.92;;
64387;SDS011;50709;52.648;4.764;2023-05-10T13:45:15;5.63;;;3.60;;
64387;SDS011;50709;52.648;4.764;2023-05-10T13:47:41;4.78;;;3.15;;
64387;SDS011;50709;52.648;4.764;2023-05-10T13:50:06;5.18;;;3.25;;
64387;SDS011;50709;52.648;4.764;2023-05-10T13:52:32;6.47;;;3.55;;
64387;SDS011;50709;52.648;4.764;2023-05-10T13:54:57;5.65;;;3.38;;
64387;SDS011;50709;52.648;4.764;2023-05-10T13:57:26;5.03;;;3.20;;
64387;SDS011;50709;52.648;4.764;2023-05-10T13:59:51;5.40;;;3.33;;
64387;SDS011;50709;52.648;4.764;2023-05-10T14:02:17;5.03;;;3.10;;
64387;SDS011;50709;52.648;4.764;2023-05-10T14:04:42;4.22;;;2.90;;
64387;SDS011;50709;52.648;4.764;2023-05-10T14:07:08;6.95;;;3.22;;
64387;SDS011;50709;52.648;4.764;2023-05-10T14:09:33;5.28;;;3.38;;
64387;SDS011;50709;52.648;4.764;2023-05-10T14:11:58;5.32;;;3.25;;
64387;SDS011;50709;52.648;4.764;2023-05-10T14:14:24;5.22;;;3.38;;
64387;SDS011;50709;52.648;4.764;2023-05-10T14:16:49;6.00;;;3.70;;
64387;SDS011;50709;52.648;4.764;2023-05-10T14:19:15;6.47;;;4.05;;
64387;SDS011;50709;52.648;4.764;2023-05-10T14:21:40;5.43;;;3.45;;
64387;SDS011;50709;52.648;4.764;2023-05-10T14:24:06;5.35;;;3.63;;
64387;SDS011;50709;52.648;4.764;2023-05-10T14:26:32;5.15;;;3.35;;
64387;SDS011;50709;52.648;4.764;2023-05-10T14:28:59;6.47;;;3.63;;
64387;SDS011;50709;52.648;4.764;2023-05-10T14:31:24;6.28;;;3.83;;
64387;SDS011;50709;52.648;4.764;2023-05-10T14:33:50;7.13;;;3.47;;
64387;SDS011;50709;52.648;4.764;2023-05-10T14:36:15;6.00;;;3.95;;
64387;SDS011;50709;52.648;4.764;2023-05-10T14:38:42;5.13;;;3.40;;
64387;SDS011;50709;52.648;4.764;2023-05-10T14:41:07;6.45;;;4.20;;
64387;SDS011;50709;52.648;4.764;2023-05-10T14:43:33;6.53;;;4.00;;
64387;SDS011;50709;52.648;4.764;2023-05-10T14:45:58;7.40;;;3.80;;
64387;SDS011;50709;52.648;4.764;2023-05-10T14:48:23;6.50;;;4.18;;
64387;SDS011;50709;52.648;4.764;2023-05-10T14:50:49;7.35;;;4.25;;
64387;SDS011;50709;52.648;4.764;2023-05-10T14:53:15;7.18;;;3.55;;
64387;SDS011;50709;52.648;4.764;2023-05-10T14:55:40;5.60;;;3.22;;
64387;SDS011;50709;52.648;4.764;2023-05-10T14:58:06;6.25;;;3.75;;
64387;SDS011;50709;52.648;4.764;2023-05-10T15:00:31;5.22;;;3.42;;
64387;SDS011;50709;52.648;4.764;2023-05-10T15:03:17;5.18;;;3.28;;
64387;SDS011;50709;52.648;4.764;2023-05-10T15:05:42;5.22;;;3.25;;
64387;SDS011;50709;52.648;4.764;2023-05-10T15:08:07;5.93;;;3.40;;
64387;SDS011;50709;52.648;4.764;2023-05-10T15:10:34;5.95;;;3.88;;
64387;SDS011;50709;52.648;4.764;2023-05-10T15:13:00;5.25;;;3.58;;
64387;SDS011;50709;52.648;4.764;2023-05-10T15:15:26;6.65;;;4.80;;
64387;SDS011;50709;52.648;4.764;2023-05-10T15:17:51;6.90;;;4.32;;
64387;SDS011;50709;52.648;4.764;2023-05-10T15:20:17;6.35;;;4.40;;